createdAt,value
2023-03-26T00:02:29.891Z,7.83
2023-03-26T00:05:02.124Z,7.82
2023-03-26T00:07:33.987Z,7.83
2023-03-26T00:10:07.156Z,7.81
2023-03-26T00:12:39.100Z,7.79
2023-03-26T00:15:12.724Z,7.76
2023-03-26T00:17:46.728Z,7.73
2023-03-26T00:20:19.033Z,7.70
2023-03-26T00:22:51.552Z,7.66
2023-03-26T00:25:24.890Z,7.64
2023-03-26T00:27:57.383Z,7.63
2023-03-26T00:30:29.873Z,7.59
2023-03-26T00:33:04.456Z,7.58
2023-03-26T00:35:38.499Z,7.53
2023-03-26T00:38:10.959Z,7.51
2023-03-26T00:40:44.331Z,7.48
2023-03-26T00:43:19.829Z,7.45
2023-03-26T00:45:54.467Z,7.43
2023-03-26T00:48:41.869Z,7.41
2023-03-26T00:51:18.430Z,7.37
2023-03-26T00:53:52.190Z,7.35
2023-03-26T00:56:24.172Z,7.33
2023-03-26T00:58:57.853Z,7.32
2023-03-26T01:01:32.685Z,7.30
2023-03-26T01:04:27.494Z,7.28
2023-03-26T01:07:02.890Z,7.27
2023-03-26T01:09:38.222Z,7.25
2023-03-26T01:12:13.354Z,7.24
2023-03-26T01:14:45.933Z,7.25
2023-03-26T01:17:18.507Z,7.24
2023-03-26T01:19:56.444Z,7.24
2023-03-26T01:22:29.194Z,7.24
2023-03-26T01:25:01.257Z,7.24
2023-03-26T01:27:39.107Z,7.25
2023-03-26T01:30:18.297Z,7.26
2023-03-26T01:32:57.855Z,7.26
2023-03-26T01:35:45.963Z,7.27
2023-03-26T01:38:24.691Z,7.27
2023-03-26T01:41:00.465Z,7.27
2023-03-26T01:43:36.758Z,7.26
2023-03-26T01:46:11.027Z,7.26
2023-03-26T01:48:45.245Z,7.25
2023-03-26T01:51:27.433Z,7.24
2023-03-26T01:54:00.472Z,7.24
2023-03-26T01:56:38.102Z,7.23
2023-03-26T01:59:20.611Z,7.21
2023-03-26T02:01:58.224Z,7.22
2023-03-26T02:04:36.558Z,7.22
2023-03-26T02:07:10.683Z,7.22
2023-03-26T02:09:46.411Z,7.22
2023-03-26T02:12:19.027Z,7.22
2023-03-26T02:14:51.489Z,7.21
2023-03-26T02:17:24.627Z,7.22
2023-03-26T02:19:56.978Z,7.23
2023-03-26T02:22:30.058Z,7.24
2023-03-26T02:25:02.190Z,7.24
2023-03-26T02:27:34.212Z,7.24
2023-03-26T02:30:09.600Z,7.23
2023-03-26T02:32:43.797Z,7.22
2023-03-26T02:35:16.811Z,7.22
2023-03-26T02:37:51.091Z,7.22
2023-03-26T02:40:22.946Z,7.22
2023-03-26T02:42:55.338Z,7.20
2023-03-26T02:45:27.413Z,7.19
2023-03-26T02:48:01.082Z,7.19
2023-03-26T02:50:36.912Z,7.19
2023-03-26T02:53:08.654Z,7.18
2023-03-26T02:55:40.893Z,7.16
2023-03-26T02:58:12.783Z,7.15
2023-03-26T03:00:44.653Z,7.14
2023-03-26T03:03:17.536Z,7.15
2023-03-26T03:05:50.211Z,7.14
2023-03-26T03:08:22.731Z,7.16
2023-03-26T03:11:02.128Z,7.17
2023-03-26T03:13:34.185Z,7.18
2023-03-26T03:16:07.072Z,7.18
2023-03-26T03:18:39.175Z,7.18
2023-03-26T03:21:11.127Z,7.19
2023-03-26T03:23:43.077Z,7.19
2023-03-26T03:26:18.449Z,7.19
2023-03-26T03:28:50.832Z,7.19
2023-03-26T03:31:23.201Z,7.20
2023-03-26T03:33:55.371Z,7.20
2023-03-26T03:36:30.572Z,7.22
2023-03-26T03:39:02.964Z,7.23
2023-03-26T03:41:35.016Z,7.23
2023-03-26T03:44:07.092Z,7.25
2023-03-26T03:46:39.222Z,7.27
2023-03-26T03:49:11.235Z,7.27
2023-03-26T03:51:43.376Z,7.29
2023-03-26T03:54:15.358Z,7.32
2023-03-26T03:56:47.716Z,7.32
2023-03-26T03:59:19.861Z,7.34
2023-03-26T04:01:52.081Z,7.37
2023-03-26T04:04:24.849Z,7.38
2023-03-26T04:06:56.994Z,7.39
2023-03-26T04:09:29.081Z,7.40
2023-03-26T04:12:01.081Z,7.41
2023-03-26T04:14:33.242Z,7.41
2023-03-26T04:17:05.626Z,7.41
2023-03-26T04:19:38.590Z,7.42
2023-03-26T04:22:12.132Z,7.42
2023-03-26T04:24:44.146Z,7.43
2023-03-26T04:27:19.165Z,7.44
2023-03-26T04:29:52.452Z,7.43
2023-03-26T04:32:26.799Z,7.42
2023-03-26T04:35:00.424Z,7.43
2023-03-26T04:37:34.646Z,7.41
2023-03-26T04:40:09.331Z,7.39
2023-03-26T04:42:46.244Z,7.38
2023-03-26T04:45:23.119Z,7.38
2023-03-26T04:47:56.781Z,7.37
2023-03-26T04:50:29.385Z,7.36
2023-03-26T04:53:02.565Z,7.34
2023-03-26T04:55:39.767Z,7.32
2023-03-26T04:58:14.180Z,7.29
2023-03-26T05:00:47.634Z,7.25
2023-03-26T05:03:21.289Z,7.21
2023-03-26T05:05:53.612Z,7.18
2023-03-26T05:08:26.892Z,7.17
2023-03-26T05:10:58.864Z,7.17
2023-03-26T05:13:31.392Z,7.19
2023-03-26T05:16:03.280Z,7.21
2023-03-26T05:18:35.134Z,7.23
2023-03-26T05:21:08.117Z,7.24
2023-03-26T05:23:40.195Z,7.24
2023-03-26T05:26:13.138Z,7.25
2023-03-26T05:28:45.861Z,7.26
2023-03-26T05:31:22.363Z,7.29
2023-03-26T05:33:55.249Z,7.30
2023-03-26T05:36:28.555Z,7.32
2023-03-26T05:39:00.688Z,7.35
2023-03-26T05:41:33.245Z,7.41
2023-03-26T05:44:05.491Z,7.43
2023-03-26T05:46:37.569Z,7.46
2023-03-26T05:49:09.476Z,7.48
2023-03-26T05:51:41.613Z,7.49
2023-03-26T05:54:13.942Z,7.51
2023-03-26T05:56:45.845Z,7.54
2023-03-26T05:59:18.712Z,7.55
2023-03-26T06:01:51.439Z,7.59
2023-03-26T06:04:23.906Z,7.63
2023-03-26T06:06:57.076Z,7.69
2023-03-26T06:09:30.010Z,7.74
2023-03-26T06:12:02.270Z,7.81
2023-03-26T06:14:34.496Z,7.85
2023-03-26T06:17:06.733Z,7.88
2023-03-26T06:19:38.584Z,7.91
2023-03-26T06:22:12.473Z,7.94
2023-03-26T06:24:44.810Z,7.95
2023-03-26T06:27:16.953Z,7.98
2023-03-26T06:29:49.160Z,7.99
2023-03-26T06:32:21.262Z,8.01
2023-03-26T06:34:53.107Z,8.02
2023-03-26T06:37:25.265Z,8.01
2023-03-26T06:39:57.194Z,7.92
2023-03-26T06:42:53.619Z,7.84
2023-03-26T06:45:21.511Z,7.79
2023-03-26T06:47:53.560Z,7.75
2023-03-26T06:50:25.467Z,7.74
2023-03-26T06:52:57.827Z,7.71
2023-03-26T06:55:31.435Z,7.69
2023-03-26T06:58:03.477Z,7.66
2023-03-26T07:00:35.472Z,7.61
2023-03-26T07:03:08.581Z,7.61
2023-03-26T07:05:40.628Z,7.63
2023-03-26T07:08:12.910Z,7.63
2023-03-26T07:10:45.042Z,7.67
2023-03-26T07:13:17.034Z,7.71
2023-03-26T07:15:50.892Z,7.78
2023-03-26T07:18:23.172Z,7.83
2023-03-26T07:20:55.972Z,7.87
2023-03-26T07:23:29.669Z,7.89
2023-03-26T07:26:01.958Z,7.94
2023-03-26T07:28:39.291Z,8.01
2023-03-26T07:31:20.649Z,8.08
2023-03-26T07:33:56.953Z,8.16
2023-03-26T07:36:32.444Z,8.23
2023-03-26T07:39:16.510Z,8.34
2023-03-26T07:41:53.939Z,8.49
2023-03-26T07:44:45.089Z,8.55
2023-03-26T07:47:26.208Z,8.59
2023-03-26T07:49:59.445Z,8.63
2023-03-26T07:52:32.311Z,8.69
2023-03-26T07:55:05.094Z,8.76
2023-03-26T07:57:46.943Z,8.80
2023-03-26T08:00:22.190Z,8.79
2023-03-26T08:03:16.076Z,8.80
2023-03-26T08:05:54.439Z,8.82
2023-03-26T08:08:30.945Z,8.82
2023-03-26T08:11:13.616Z,8.86
2023-03-26T08:13:57.738Z,8.92
2023-03-26T08:16:35.697Z,8.96
2023-03-26T08:19:14.026Z,8.96
2023-03-26T08:21:49.430Z,9.00
2023-03-26T08:24:27.000Z,9.09
2023-03-26T08:27:02.775Z,9.19
2023-03-26T08:29:39.254Z,9.27
2023-03-26T08:32:15.738Z,9.27
2023-03-26T08:34:48.620Z,9.28
2023-03-26T08:37:21.416Z,9.27
2023-03-26T08:39:53.198Z,9.23
2023-03-26T08:43:06.432Z,9.15
2023-03-26T08:45:52.204Z,9.04
2023-03-26T08:48:54.768Z,9.03
2023-03-26T08:51:53.534Z,9.09
2023-03-26T08:55:03.743Z,9.16
2023-03-26T08:57:50.718Z,9.18
2023-03-26T09:00:54.714Z,9.17
2023-03-26T09:03:41.621Z,9.16
2023-03-26T09:06:25.819Z,9.14
2023-03-26T09:09:32.709Z,9.12
2023-03-26T09:12:43.766Z,8.98
2023-03-26T09:15:54.610Z,8.95
2023-03-26T09:19:01.208Z,8.95
2023-03-26T09:21:55.655Z,8.93
2023-03-26T09:24:58.484Z,8.92
2023-03-26T09:27:39.805Z,8.98
2023-03-26T09:30:36.442Z,9.17
2023-03-26T09:33:43.227Z,9.42
2023-03-26T09:36:35.124Z,9.76
2023-03-26T09:39:13.726Z,10.12
2023-03-26T09:41:50.759Z,10.35
2023-03-26T09:44:54.177Z,10.49
2023-03-26T09:48:01.322Z,10.60
2023-03-26T09:50:38.764Z,10.64
2023-03-26T09:53:29.820Z,10.48
2023-03-26T09:56:11.930Z,10.28
2023-03-26T09:58:57.401Z,10.15
2023-03-26T10:01:35.117Z,10.02
2023-03-26T10:04:37.662Z,9.91
2023-03-26T10:07:15.882Z,9.87
2023-03-26T10:09:56.872Z,9.92
2023-03-26T10:12:35.093Z,10.00
2023-03-26T10:15:21.159Z,10.15
2023-03-26T10:18:27.428Z,10.42
2023-03-26T10:21:02.941Z,10.72
2023-03-26T10:23:49.972Z,10.99
2023-03-26T10:26:37.462Z,11.22
2023-03-26T10:29:36.121Z,11.37
2023-03-26T10:32:20.578Z,11.27
2023-03-26T10:34:57.299Z,11.07
2023-03-26T10:37:39.986Z,10.76
2023-03-26T10:40:22.527Z,10.45
2023-03-26T10:43:22.075Z,10.30
2023-03-26T10:46:04.032Z,10.53
2023-03-26T10:48:50.174Z,10.87
2023-03-26T10:51:45.435Z,11.31
2023-03-26T10:54:23.269Z,11.50
2023-03-26T10:56:55.168Z,11.14
2023-03-26T10:59:28.765Z,10.57
2023-03-26T11:02:12.192Z,9.99
2023-03-26T11:04:50.592Z,9.60
2023-03-26T11:07:28.459Z,9.41
2023-03-26T11:10:05.181Z,9.31
2023-03-26T11:12:41.713Z,9.36
2023-03-26T11:15:23.016Z,9.62
2023-03-26T11:18:04.879Z,10.05
2023-03-26T11:20:41.510Z,10.44
2023-03-26T11:23:39.405Z,10.69
2023-03-26T11:26:17.431Z,10.76
2023-03-26T11:29:31.073Z,10.85
2023-03-26T11:32:03.804Z,10.82
2023-03-26T11:34:38.760Z,10.72
2023-03-26T11:37:16.437Z,10.64
2023-03-26T11:39:52.840Z,10.53
2023-03-26T11:42:27.466Z,10.39
2023-03-26T11:45:01.275Z,10.31
2023-03-26T11:47:35.381Z,10.24
2023-03-26T11:50:09.255Z,10.21
2023-03-26T11:52:41.891Z,10.20
2023-03-26T11:55:15.936Z,10.20
2023-03-26T11:57:53.704Z,10.21
2023-03-26T12:00:27.721Z,10.27
2023-03-26T12:03:01.780Z,10.33
2023-03-26T12:05:36.870Z,10.38
2023-03-26T12:08:21.476Z,10.40
2023-03-26T12:11:05.723Z,10.41
2023-03-26T12:13:42.043Z,10.43
2023-03-26T12:16:16.661Z,10.50
2023-03-26T12:19:00.190Z,10.51
2023-03-26T12:21:32.916Z,10.46
2023-03-26T12:24:07.514Z,10.38
2023-03-26T12:26:43.753Z,10.33
2023-03-26T12:29:17.238Z,10.26
2023-03-26T12:31:54.289Z,10.28
2023-03-26T12:34:35.223Z,10.32
2023-03-26T12:37:09.131Z,10.64
2023-03-26T12:40:11.853Z,11.41
2023-03-26T12:44:46.259Z,12.16
2023-03-26T12:48:06.744Z,13.05
2023-03-26T12:50:46.467Z,13.12
2023-03-26T12:53:50.610Z,13.40
2023-03-26T12:56:36.469Z,13.62
2023-03-26T12:59:22.926Z,13.51
2023-03-26T13:01:59.993Z,13.19
2023-03-26T13:05:05.490Z,12.76
2023-03-26T13:07:54.776Z,12.37
2023-03-26T13:10:39.718Z,12.08
2023-03-26T13:13:26.160Z,11.76
2023-03-26T13:16:02.230Z,11.53
2023-03-26T13:18:43.638Z,11.33
2023-03-26T13:21:20.988Z,11.24
2023-03-26T13:23:59.852Z,11.18
2023-03-26T13:26:42.378Z,11.14
2023-03-26T13:29:19.016Z,11.15
2023-03-26T13:31:58.939Z,11.19
2023-03-26T13:34:38.179Z,11.24
2023-03-26T13:37:15.193Z,11.30
2023-03-26T13:39:57.270Z,11.37
2023-03-26T13:42:38.151Z,11.46
2023-03-26T13:45:18.470Z,11.54
2023-03-26T13:47:52.079Z,11.60
2023-03-26T13:50:28.282Z,11.62
2023-03-26T13:53:03.409Z,11.65
2023-03-26T13:55:37.542Z,11.63
2023-03-26T13:58:16.283Z,11.62
2023-03-26T14:00:54.857Z,11.64
2023-03-26T14:03:31.965Z,11.69
2023-03-26T14:06:07.982Z,11.75
2023-03-26T14:08:42.431Z,11.72
2023-03-26T14:11:19.055Z,11.64
2023-03-26T14:13:53.150Z,11.49
2023-03-26T14:16:28.384Z,11.39
2023-03-26T14:19:05.510Z,11.36
2023-03-26T14:21:55.936Z,11.37
2023-03-26T14:24:50.323Z,11.43
2023-03-26T14:27:47.723Z,11.41
2023-03-26T14:30:49.554Z,11.34
2023-03-26T14:33:36.102Z,11.26
2023-03-26T14:36:20.749Z,11.20
2023-03-26T14:39:25.706Z,11.24
2023-03-26T14:42:00.475Z,11.29
2023-03-26T14:45:00.069Z,11.30
2023-03-26T14:47:33.119Z,11.29
2023-03-26T14:50:42.725Z,11.28
2023-03-26T14:53:22.876Z,11.26
2023-03-26T14:56:28.201Z,11.27
2023-03-26T14:59:39.474Z,11.26
2023-03-26T15:02:45.176Z,11.23
2023-03-26T15:05:59.795Z,11.26
2023-03-26T15:09:13.897Z,11.33
2023-03-26T15:11:52.949Z,11.93
2023-03-26T15:14:58.319Z,13.26
2023-03-26T15:17:55.174Z,13.42
2023-03-26T15:21:16.434Z,13.05
2023-03-26T15:24:26.521Z,12.49
2023-03-26T15:27:32.248Z,12.16
2023-03-26T15:30:44.078Z,11.98
2023-03-26T15:33:48.833Z,11.78
2023-03-26T15:36:54.440Z,11.60
2023-03-26T15:39:59.559Z,11.40
2023-03-26T15:42:38.439Z,11.24
2023-03-26T15:45:35.404Z,11.14
2023-03-26T15:48:57.944Z,11.05
2023-03-26T15:51:47.280Z,10.98
2023-03-26T15:54:29.878Z,10.96
2023-03-26T15:57:17.142Z,10.93
2023-03-26T16:00:12.808Z,10.89
2023-03-26T16:02:50.642Z,10.82
2023-03-26T16:05:37.455Z,10.78
2023-03-26T16:08:17.071Z,10.73
2023-03-26T16:10:52.531Z,10.71
2023-03-26T16:13:34.116Z,10.69
2023-03-26T16:16:27.160Z,10.66
2023-03-26T16:19:08.444Z,10.62
2023-03-26T16:21:47.811Z,10.58
2023-03-26T16:24:28.214Z,10.55
2023-03-26T16:27:33.761Z,10.53
2023-03-26T16:30:34.567Z,10.48
2023-03-26T16:33:16.878Z,10.41
2023-03-26T16:36:07.559Z,10.36
2023-03-26T16:39:03.719Z,10.28
2023-03-26T16:41:38.138Z,10.24
2023-03-26T16:44:14.266Z,10.20
2023-03-26T16:46:53.605Z,10.16
2023-03-26T16:49:42.173Z,10.12
2023-03-26T16:52:35.812Z,10.06
2023-03-26T16:55:16.981Z,10.00
2023-03-26T16:57:57.039Z,9.96
2023-03-26T17:00:42.392Z,9.91
2023-03-26T17:03:43.809Z,9.86
2023-03-26T17:06:31.006Z,9.81
2023-03-26T17:09:15.420Z,9.78
2023-03-26T17:11:50.231Z,9.74
2023-03-26T17:14:32.319Z,9.69
2023-03-26T17:17:27.472Z,9.65
2023-03-26T17:20:05.060Z,9.60
2023-03-26T17:22:43.542Z,9.57
2023-03-26T17:25:35.382Z,9.55
2023-03-26T17:28:20.390Z,9.53
2023-03-26T17:31:03.340Z,9.49
2023-03-26T17:33:39.522Z,9.46
2023-03-26T17:36:45.993Z,9.43
2023-03-26T17:40:09.924Z,9.39
2023-03-26T17:43:06.315Z,9.35
2023-03-26T17:45:39.659Z,9.32
2023-03-26T17:48:18.264Z,9.30
2023-03-26T17:50:54.165Z,9.30
2023-03-26T17:53:30.855Z,9.32
2023-03-26T17:56:04.872Z,9.32
2023-03-26T17:58:42.770Z,9.28
2023-03-26T18:01:22.593Z,9.25
2023-03-26T18:03:57.913Z,9.24
2023-03-26T18:06:42.260Z,9.21
2023-03-26T18:09:15.749Z,9.19
2023-03-26T18:12:00.551Z,9.16
2023-03-26T18:14:55.944Z,9.14
2023-03-26T18:17:28.120Z,9.12
2023-03-26T18:20:07.572Z,9.10
2023-03-26T18:22:39.409Z,9.08
2023-03-26T18:25:25.426Z,9.07
2023-03-26T18:27:59.655Z,9.05
2023-03-26T18:30:31.724Z,9.04
2023-03-26T18:33:06.419Z,9.02
2023-03-26T18:35:45.116Z,9.00
2023-03-26T18:38:35.659Z,8.98
2023-03-26T18:41:13.550Z,8.94
2023-03-26T18:43:45.363Z,8.92
2023-03-26T18:46:17.966Z,8.92
2023-03-26T18:48:49.928Z,8.90
2023-03-26T18:51:23.390Z,8.88
2023-03-26T18:53:58.129Z,8.85
2023-03-26T18:56:36.251Z,8.82
2023-03-26T18:59:28.327Z,8.81
2023-03-26T19:02:01.521Z,8.78
2023-03-26T19:04:35.071Z,8.76
2023-03-26T19:07:10.533Z,8.75
2023-03-26T19:09:43.350Z,8.73
2023-03-26T19:12:22.892Z,8.70
2023-03-26T19:14:57.178Z,8.67
2023-03-26T19:17:31.578Z,8.64
2023-03-26T19:20:04.314Z,8.59
2023-03-26T19:22:36.813Z,8.54
2023-03-26T19:25:17.234Z,8.51
2023-03-26T19:27:49.591Z,8.47
2023-03-26T19:30:29.169Z,8.44
2023-03-26T19:33:12.306Z,8.41
2023-03-26T19:35:46.550Z,8.38
2023-03-26T19:38:25.803Z,8.34
2023-03-26T19:40:59.057Z,8.29
2023-03-26T19:43:31.901Z,8.24
2023-03-26T19:46:03.751Z,8.19
2023-03-26T19:48:46.150Z,8.14
2023-03-26T19:51:23.665Z,8.11
2023-03-26T19:53:58.458Z,8.07
2023-03-26T19:56:33.851Z,8.03
2023-03-26T19:59:06.306Z,7.98
2023-03-26T20:01:38.203Z,7.93
2023-03-26T20:04:13.755Z,7.89
2023-03-26T20:06:49.199Z,7.84
2023-03-26T20:09:21.415Z,7.80
2023-03-26T20:11:54.353Z,7.75
2023-03-26T20:14:27.054Z,7.70
2023-03-26T20:16:58.918Z,7.66
2023-03-26T20:19:31.386Z,7.60
2023-03-26T20:22:03.253Z,7.56
2023-03-26T20:24:35.813Z,7.51
2023-03-26T20:27:07.723Z,7.48
2023-03-26T20:29:40.263Z,7.45
2023-03-26T20:32:24.171Z,7.42
2023-03-26T20:34:57.904Z,7.41
2023-03-26T20:37:30.498Z,7.38
2023-03-26T20:40:06.797Z,7.37
2023-03-26T20:42:38.631Z,7.34
2023-03-26T20:45:18.628Z,7.30
2023-03-26T20:47:51.238Z,7.28
2023-03-26T20:50:26.413Z,7.25
2023-03-26T20:52:59.865Z,7.24
2023-03-26T20:55:31.807Z,7.22
2023-03-26T20:58:04.604Z,7.21
2023-03-26T21:00:37.324Z,7.17
2023-03-26T21:03:10.401Z,7.14
2023-03-26T21:05:43.538Z,7.11
2023-03-26T21:08:19.609Z,7.08
2023-03-26T21:10:52.601Z,7.08
2023-03-26T21:13:34.044Z,7.04
2023-03-26T21:16:08.183Z,7.01
2023-03-26T21:18:43.833Z,6.98
2023-03-26T21:21:28.203Z,6.95
2023-03-26T21:24:00.586Z,6.92
2023-03-26T21:26:41.596Z,6.90
2023-03-26T21:29:14.253Z,6.87
2023-03-26T21:31:47.255Z,6.84
2023-03-26T21:34:20.127Z,6.81
2023-03-26T21:36:53.199Z,6.80
2023-03-26T21:39:25.682Z,6.79
2023-03-26T21:42:05.166Z,6.77
2023-03-26T21:44:38.492Z,6.76
2023-03-26T21:47:11.644Z,6.76
2023-03-26T21:49:44.377Z,6.75
2023-03-26T21:52:17.190Z,6.74
2023-03-26T21:54:49.972Z,6.72
2023-03-26T21:57:42.788Z,6.71
2023-03-26T22:00:18.627Z,6.70
2023-03-26T22:03:00.250Z,6.68
2023-03-26T22:05:41.156Z,6.67
2023-03-26T22:08:23.196Z,6.65
2023-03-26T22:10:55.394Z,6.63
2023-03-26T22:13:27.853Z,6.63
2023-03-26T22:16:00.221Z,6.62
2023-03-26T22:18:33.032Z,6.62
2023-03-26T22:21:06.026Z,6.62
2023-03-26T22:23:39.218Z,6.61
2023-03-26T22:26:11.129Z,6.60
2023-03-26T22:28:43.254Z,6.59
2023-03-26T22:31:15.129Z,6.58
2023-03-26T22:33:47.309Z,6.56
2023-03-26T22:36:22.931Z,6.54
2023-03-26T22:38:56.936Z,6.52
2023-03-26T22:41:29.617Z,6.50
2023-03-26T22:44:16.931Z,6.47
2023-03-26T22:46:52.487Z,6.45
2023-03-26T22:49:27.564Z,6.42
2023-03-26T22:51:59.447Z,6.39
2023-03-26T22:54:31.981Z,6.36
2023-03-26T22:57:03.935Z,6.34
2023-03-26T22:59:36.479Z,6.33
2023-03-26T23:02:09.873Z,6.32
2023-03-26T23:04:42.844Z,6.32
2023-03-26T23:07:14.791Z,6.32
2023-03-26T23:09:47.168Z,6.31
2023-03-26T23:12:18.904Z,6.30
2023-03-26T23:14:53.186Z,6.29
2023-03-26T23:17:25.096Z,6.28
2023-03-26T23:19:57.438Z,6.28
2023-03-26T23:22:29.323Z,6.26
2023-03-26T23:25:01.314Z,6.27
2023-03-26T23:27:33.183Z,6.25
2023-03-26T23:30:05.815Z,6.24
2023-03-26T23:32:38.072Z,6.24
2023-03-26T23:35:11.315Z,6.23
2023-03-26T23:37:43.884Z,6.23
2023-03-26T23:40:16.831Z,6.22
2023-03-26T23:42:49.644Z,6.22
2023-03-26T23:45:22.162Z,6.21
2023-03-26T23:47:54.030Z,6.21
2023-03-26T23:50:29.404Z,6.22
2023-03-26T23:53:01.481Z,6.22
2023-03-26T23:55:35.558Z,6.22
2023-03-26T23:58:05.952Z,6.22
